Time;durP1;ratioP1;P1;durP2;ratioP2;P2;SDS_P1;SDS_P2;PMS_P1;PMS_P2;Temp;Humidity;BMP_temperature;BMP_pressure;BME280_temperature;BME280_humidity;BME280_pressure;Samples;Min_cycle;Max_cycle;Signal;HPM_P1;HPM_P2
2021/06/14 00:01:20;;;;;;;4.87;1.80;;;;;;;-139.38;100.00;63230.50;5015425;28;20692;-72
2021/06/14 00:04:45;;;;;;;3.73;1.77;;;;;;;-139.38;100.00;63230.50;5013145;28;20210;-72
2021/06/14 00:08:12;;;;;;;3.97;1.63;;;;;;;-139.38;100.00;63230.50;5017386;28;20226;-72
2021/06/14 00:11:40;;;;;;;2.67;1.70;;;;;;;-139.38;100.00;63230.50;5014429;28;20215;-72
2021/06/14 00:15:06;;;;;;;6.23;2.20;;;;;;;-139.38;100.00;63230.50;5014828;28;20219;-72
2021/06/14 00:18:33;;;;;;;4.27;1.90;;;;;;;-139.38;100.00;63230.50;5016219;28;20584;-72
2021/06/14 00:21:59;;;;;;;2.93;1.90;;;;;;;-139.38;100.00;63230.50;5019040;28;20207;-72
2021/06/14 00:25:26;;;;;;;4.03;1.80;;;;;;;-139.38;100.00;63230.50;5018737;28;20213;-72
2021/06/14 00:28:53;;;;;;;4.17;2.10;;;;;;;-139.38;100.00;63230.50;5014599;28;20604;-72
2021/06/14 00:32:19;;;;;;;3.97;1.63;;;;;;;-139.38;100.00;63230.50;5010713;28;20579;-70
2021/06/14 00:35:46;;;;;;;3.63;1.97;;;;;;;-139.38;100.00;63230.50;5012054;28;20684;-73
2021/06/14 00:39:13;;;;;;;5.63;1.80;;;;;;;-139.38;100.00;63230.50;5020851;28;20228;-71
2021/06/14 00:42:38;;;;;;;2.17;1.70;;;;;;;-139.38;100.00;63230.50;5013352;28;20220;-74
2021/06/14 00:46:08;;;;;;;4.40;2.17;;;;;;;-139.38;100.00;63230.50;5017810;28;20202;-72
2021/06/14 00:49:34;;;;;;;4.83;1.90;;;;;;;-139.38;100.00;63230.50;5019326;28;20248;-72
2021/06/14 00:53:00;;;;;;;4.60;2.20;;;;;;;-139.38;100.00;63230.50;5019516;28;20219;-71
2021/06/14 00:56:25;;;;;;;4.10;2.17;;;;;;;-139.38;100.00;63230.50;5018769;28;20215;-72
2021/06/14 00:59:51;;;;;;;3.03;1.90;;;;;;;-139.38;100.00;63230.50;5008426;28;20222;-72
2021/06/14 01:03:18;;;;;;;4.27;2.07;;;;;;;-139.38;100.00;63230.50;5014730;28;20217;-73
2021/06/14 01:06:46;;;;;;;6.57;2.30;;;;;;;-139.38;100.00;63230.50;5014338;28;20224;-72
2021/06/14 01:10:13;;;;;;;3.17;2.03;;;;;;;-139.38;100.00;63230.50;5018685;28;20235;-72
2021/06/14 01:13:43;;;;;;;3.90;2.00;;;;;;;-139.38;100.00;63230.50;5015223;28;20222;-72
2021/06/14 01:17:23;;;;;;;5.60;2.40;;;;;;;-139.38;100.00;63230.50;5016497;28;20201;-72
2021/06/14 01:21:10;;;;;;;3.50;2.17;;;;;;;-139.38;100.00;63230.50;5018774;28;20645;-72
2021/06/14 01:24:50;;;;;;;5.87;2.40;;;;;;;-139.38;100.00;63230.50;5014933;28;20207;-72
2021/06/14 01:28:44;;;;;;;2.83;1.77;;;;;;;-139.38;100.00;63230.50;5018504;28;20265;-70
2021/06/14 01:32:11;;;;;;;4.20;2.03;;;;;;;-139.38;100.00;63230.50;5004028;28;20254;-70
2021/06/14 01:35:39;;;;;;;5.17;2.20;;;;;;;-139.38;100.00;63230.50;5011835;28;20228;-70
2021/06/14 01:39:06;;;;;;;5.07;2.10;;;;;;;-139.38;100.00;63230.50;5017378;28;20235;-71
2021/06/14 01:42:33;;;;;;;4.00;2.00;;;;;;;-139.38;100.00;63230.50;5015459;28;20747;-72
2021/06/14 01:46:03;;;;;;;3.93;2.00;;;;;;;-139.38;100.00;63230.50;5012302;28;20206;-72
2021/06/14 01:49:29;;;;;;;2.47;2.00;;;;;;;-139.38;100.00;63230.50;5013898;28;20228;-72
2021/06/14 01:52:56;;;;;;;2.83;1.80;;;;;;;-139.38;100.00;63230.50;5012939;28;20205;-72
2021/06/14 01:56:22;;;;;;;3.30;1.73;;;;;;;-139.38;100.00;63230.50;5010005;28;20209;-69
2021/06/14 01:59:48;;;;;;;5.40;2.40;;;;;;;-139.38;100.00;63230.50;5009712;28;20235;-71
2021/06/14 02:03:16;;;;;;;4.43;2.00;;;;;;;-139.38;100.00;63230.50;5012646;28;20215;-70
2021/06/14 02:06:42;;;;;;;5.20;2.33;;;;;;;-139.38;100.00;63230.50;5019879;28;20218;-72
2021/06/14 02:10:09;;;;;;;4.50;2.17;;;;;;;-139.38;100.00;63230.50;5019253;28;20251;-71
2021/06/14 02:13:38;;;;;;;5.60;2.20;;;;;;;-139.38;100.00;63230.50;5023235;28;20204;-72
2021/06/14 02:17:05;;;;;;;3.27;2.10;;;;;;;-139.38;100.00;63230.50;5023223;28;20209;-72
2021/06/14 02:20:33;;;;;;;3.57;2.10;;;;;;;-139.38;100.00;63230.50;5027136;28;20227;-72
2021/06/14 02:23:58;;;;;;;4.23;2.13;;;;;;;-139.38;100.00;63230.50;5019854;28;20207;-72
2021/06/14 02:27:24;;;;;;;4.50;2.23;;;;;;;-139.38;100.00;63230.50;5021923;28;20205;-70
2021/06/14 02:30:50;;;;;;;3.53;2.10;;;;;;;-139.38;100.00;63230.50;5020667;28;20673;-71
2021/06/14 02:34:16;;;;;;;3.90;2.17;;;;;;;-139.38;100.00;63230.50;5018666;28;20241;-71
2021/06/14 02:37:44;;;;;;;3.47;1.90;;;;;;;-139.38;100.00;63230.50;5018297;28;20302;-71
2021/06/14 02:41:11;;;;;;;3.40;2.30;;;;;;;-139.38;100.00;63230.50;5023645;28;20211;-70
2021/06/14 02:44:37;;;;;;;3.00;2.03;;;;;;;-139.38;100.00;63230.50;5015660;28;20289;-69
2021/06/14 02:48:05;;;;;;;4.80;2.47;;;;;;;-139.38;100.00;63230.50;5018905;28;20211;-70
2021/06/14 02:51:32;;;;;;;5.07;2.07;;;;;;;-139.38;100.00;63230.50;5022219;28;20205;-70
2021/06/14 02:55:01;;;;;;;3.10;2.00;;;;;;;-139.38;100.00;63230.50;5020752;28;20229;-69
2021/06/14 02:58:30;;;;;;;3.83;2.27;;;;;;;-139.38;100.00;63230.50;5023901;28;20227;-72
2021/06/14 03:01:56;;;;;;;5.30;2.40;;;;;;;-139.38;100.00;63230.50;5020664;28;20209;-71
2021/06/14 03:05:22;;;;;;;3.10;2.27;;;;;;;-139.38;100.00;63230.50;5025346;28;20206;-72
2021/06/14 03:08:48;;;;;;;3.77;1.90;;;;;;;-139.38;100.00;63230.50;5016962;28;20236;-72
2021/06/14 03:12:15;;;;;;;2.47;1.97;;;;;;;-139.38;100.00;63230.50;5019142;28;20219;-72
2021/06/14 03:15:41;;;;;;;3.30;2.03;;;;;;;-139.38;100.00;63230.50;5023421;28;20231;-71
2021/06/14 03:19:09;;;;;;;4.67;2.17;;;;;;;-139.38;100.00;63230.50;5018228;28;20232;-71
2021/06/14 03:22:38;;;;;;;6.03;2.37;;;;;;;-139.38;100.00;63230.50;5023179;28;20201;-71
2021/06/14 03:26:04;;;;;;;4.37;2.40;;;;;;;-139.38;100.00;63230.50;5013542;28;20203;-71
2021/06/14 03:29:31;;;;;;;3.97;2.63;;;;;;;-139.38;100.00;63230.50;5017162;28;20696;-71
2021/06/14 03:32:58;;;;;;;4.03;2.23;;;;;;;-139.38;100.00;63230.50;5018450;28;20207;-70
2021/06/14 03:36:24;;;;;;;3.30;2.10;;;;;;;-139.38;100.00;63230.50;5013451;28;20594;-71
2021/06/14 03:39:51;;;;;;;3.07;2.20;;;;;;;-139.38;100.00;63230.50;5012312;28;20600;-71
2021/06/14 03:43:17;;;;;;;4.10;2.50;;;;;;;-139.38;100.00;63230.50;5022295;28;20214;-71
2021/06/14 03:46:44;;;;;;;3.73;1.97;;;;;;;-139.38;100.00;63230.50;5012304;28;20197;-71
2021/06/14 03:50:11;;;;;;;4.10;1.97;;;;;;;-139.38;100.00;63230.50;5018741;28;20228;-71
2021/06/14 03:53:39;;;;;;;5.50;2.60;;;;;;;-139.38;100.00;63230.50;5019565;28;21703;-71
2021/06/14 03:57:06;;;;;;;5.30;2.40;;;;;;;-139.38;100.00;63230.50;5017405;28;20232;-71
2021/06/14 04:00:32;;;;;;;6.13;2.30;;;;;;;-139.38;100.00;63230.50;5014618;28;20204;-71
2021/06/14 04:07:42;;;;;;;3.27;2.07;;;;;;;-139.38;100.00;63230.50;5016766;28;20282;-71
2021/06/14 04:11:09;;;;;;;3.90;2.07;;;;;;;-139.38;100.00;63230.50;5018511;28;20229;-73
2021/06/14 04:14:34;;;;;;;4.83;2.40;;;;;;;-139.38;100.00;63230.50;5020972;28;20208;-71
2021/06/14 04:18:01;;;;;;;3.43;2.10;;;;;;;-139.38;100.00;63230.50;5012773;28;20209;-71
2021/06/14 04:21:27;;;;;;;4.47;2.50;;;;;;;-139.38;100.00;63230.50;5012731;28;20207;-71
2021/06/14 04:24:53;;;;;;;4.23;2.60;;;;;;;-139.38;100.00;63230.50;5018135;28;20673;-71
2021/06/14 04:28:19;;;;;;;5.37;2.90;;;;;;;-139.38;100.00;63230.50;5010369;28;20236;-72
2021/06/14 04:31:44;;;;;;;4.30;2.10;;;;;;;-139.38;100.00;63230.50;5011387;28;20223;-71
2021/06/14 04:35:12;;;;;;;3.93;2.27;;;;;;;-139.38;100.00;63230.50;5020629;28;20210;-71
2021/06/14 04:38:38;;;;;;;4.07;2.70;;;;;;;-139.38;100.00;63230.50;5017648;28;20308;-71
2021/06/14 04:42:04;;;;;;;6.17;2.40;;;;;;;-139.38;100.00;63230.50;5016851;28;20202;-71
2021/06/14 04:45:29;;;;;;;5.60;2.90;;;;;;;-139.38;100.00;63230.50;5011587;28;20697;-71
2021/06/14 04:48:55;;;;;;;6.00;2.60;;;;;;;-139.38;100.00;63230.50;5023265;28;20714;-69
2021/06/14 04:52:22;;;;;;;6.57;2.77;;;;;;;-139.38;100.00;63230.50;5017631;28;20205;-71
2021/06/14 04:55:48;;;;;;;5.17;2.87;;;;;;;-139.38;100.00;63230.50;5014991;28;20228;-71
2021/06/14 04:59:14;;;;;;;5.93;2.57;;;;;;;-139.38;100.00;63230.50;5018849;28;20702;-72
2021/06/14 05:02:40;;;;;;;6.27;2.60;;;;;;;-139.38;100.00;63230.50;5013695;28;20679;-71
2021/06/14 05:06:06;;;;;;;6.40;2.60;;;;;;;-139.38;100.00;63230.50;5014851;28;20213;-72
2021/06/14 05:09:33;;;;;;;3.70;2.60;;;;;;;-139.38;100.00;63230.50;5013939;28;20231;-73
2021/06/14 05:12:59;;;;;;;6.47;2.70;;;;;;;-139.38;100.00;63230.50;5012916;28;20223;-78
2021/06/14 05:16:25;;;;;;;5.87;2.90;;;;;;;-139.38;100.00;63230.50;5011376;28;20231;-74
2021/06/14 05:19:51;;;;;;;6.27;2.57;;;;;;;-139.38;100.00;63230.50;5016981;28;20223;-75
2021/06/14 05:23:16;;;;;;;6.13;2.40;;;;;;;-139.38;100.00;63230.50;5021862;28;20210;-73
2021/06/14 05:26:44;;;;;;;4.70;2.80;;;;;;;-139.38;100.00;63230.50;5015179;28;20203;-71
2021/06/14 05:30:10;;;;;;;6.17;2.67;;;;;;;-139.38;100.00;63230.50;5019013;28;20239;-72
2021/06/14 05:33:36;;;;;;;6.17;2.67;;;;;;;-139.38;100.00;63230.50;5016178;28;20560;-72
2021/06/14 05:37:02;;;;;;;5.53;2.53;;;;;;;-139.38;100.00;63230.50;5011315;28;20227;-71
2021/06/14 05:40:28;;;;;;;4.13;2.33;;;;;;;-139.38;100.00;63230.50;5013605;28;20208;-73
2021/06/14 05:42:58;;;;;;;4.73;2.37;;;;;;;22.74;44.44;68473.13;5006292;28;20619;-75
2021/06/14 05:45:25;;;;;;;3.87;2.17;;;;;;;22.77;43.45;68476.69;5004755;28;20199;-72
2021/06/14 05:47:52;;;;;;;5.23;2.53;;;;;;;22.80;42.95;68480.41;5012880;28;20223;-72
2021/06/14 05:50:20;;;;;;;3.03;2.13;;;;;;;22.83;42.71;68483.53;5014923;28;20583;-71
2021/06/14 05:52:47;;;;;;;5.70;2.07;;;;;;;22.86;42.94;68486.72;5012984;28;20203;-72
2021/06/14 05:55:14;;;;;;;5.60;2.50;;;;;;;22.91;42.15;68491.78;5013276;28;20813;-79
2021/06/14 05:57:42;;;;;;;3.87;2.40;;;;;;;22.97;42.18;68497.41;5015576;28;20267;-72
2021/06/14 06:00:11;;;;;;;5.80;2.63;;;;;;;23.03;41.37;68503.91;5010047;28;20492;-70
2021/06/14 06:02:39;;;;;;;3.67;2.10;;;;;;;23.09;40.99;68510.31;5010213;28;20288;-76
2021/06/14 06:05:07;;;;;;;5.17;2.27;;;;;;;23.12;42.56;68513.97;5010210;28;20569;-73
2021/06/14 06:07:36;;;;;;;13.37;2.23;;;;;;;23.23;39.70;68525.25;5011997;28;20232;-76
2021/06/14 06:10:04;;;;;;;6.27;2.20;;;;;;;23.28;40.66;68531.22;5014210;28;20556;-74
2021/06/14 06:12:32;;;;;;;4.50;2.17;;;;;;;23.29;42.20;68531.91;5013941;28;20215;-73
2021/06/14 06:15:01;;;;;;;4.37;2.30;;;;;;;23.32;41.46;68535.34;5012937;28;20204;-74
2021/06/14 06:17:30;;;;;;;6.30;2.20;;;;;;;23.40;40.26;68544.75;5014382;28;20227;-72
2021/06/14 06:19:57;;;;;;;4.37;2.50;;;;;;;23.57;36.68;68563.75;5016999;28;20205;-70
2021/06/14 06:22:25;;;;;;;3.77;1.90;;;;;;;23.75;36.19;68584.22;5013779;28;20234;-70
2021/06/14 06:24:52;;;;;;;5.37;2.20;;;;;;;23.77;39.89;68586.13;5010422;28;20300;-71
2021/06/14 06:27:20;;;;;;;7.27;2.30;;;;;;;23.77;40.03;68586.31;5028294;28;20236;-71
2021/06/14 06:29:47;;;;;;;4.57;2.20;;;;;;;23.82;39.08;68591.03;5014492;28;20280;-71
2021/06/14 06:32:14;;;;;;;4.83;2.17;;;;;;;23.98;34.99;68609.72;5014736;28;20223;-72
2021/06/14 06:34:43;;;;;;;4.73;2.10;;;;;;;24.13;35.12;68625.72;5021116;28;20201;-71
2021/06/14 06:37:11;;;;;;;3.70;2.17;;;;;;;24.21;36.75;68634.63;5012894;28;20252;-71
2021/06/14 06:39:38;;;;;;;5.57;1.93;;;;;;;24.37;34.60;68652.75;5011161;28;20289;-72
2021/06/14 06:42:07;;;;;;;5.10;2.10;;;;;;;24.41;37.27;68656.72;5021856;28;20211;-71
2021/06/14 06:44:35;;;;;;;3.57;1.97;;;;;;;24.52;35.72;68668.72;5019579;28;20209;-72
2021/06/14 06:47:04;;;;;;;5.17;1.97;;;;;;;24.62;35.03;68679.75;5010297;28;20209;-72
2021/06/14 06:49:31;;;;;;;4.40;1.90;;;;;;;24.69;35.22;68688.31;5013118;28;20210;-72
2021/06/14 06:52:00;;;;;;;6.17;3.30;;;;;;;24.83;34.31;68703.75;5011516;28;20207;-71
2021/06/14 06:54:28;;;;;;;6.00;2.30;;;;;;;25.00;31.93;68723.19;5020598;28;20204;-71
2021/06/14 06:56:56;;;;;;;7.80;2.30;;;;;;;25.10;34.76;68733.47;5006930;28;20226;-71
2021/06/14 06:59:24;;;;;;;2.80;1.80;;;;;;;25.18;33.97;68743.19;5015177;28;20203;-71
2021/06/14 07:01:52;;;;;;;4.13;1.93;;;;;;;25.24;35.18;68749.50;5015155;28;20233;-71
2021/06/14 07:04:19;;;;;;;4.70;2.20;;;;;;;25.30;34.66;68756.69;5015752;28;20691;-71
2021/06/14 07:06:47;;;;;;;6.37;2.23;;;;;;;25.39;33.74;68767.13;5017575;28;20659;-72
2021/06/14 07:09:15;;;;;;;5.60;2.17;;;;;;;25.48;34.51;68776.88;5012101;28;20241;-71
2021/06/14 07:11:43;;;;;;;5.37;2.30;;;;;;;25.60;33.44;68790.50;5017640;28;20587;-71
2021/06/14 07:14:11;;;;;;;9.63;2.50;;;;;;;25.63;35.72;68793.81;5017296;28;20765;-71
2021/06/14 07:16:39;;;;;;;4.73;2.30;;;;;;;25.65;35.53;68796.28;5012662;28;20228;-72
2021/06/14 07:19:07;;;;;;;5.50;2.10;;;;;;;25.74;33.86;68806.50;5014408;28;20246;-73
2021/06/14 07:21:35;;;;;;;5.30;2.07;;;;;;;25.86;33.72;68820.00;5014349;28;20663;-72
2021/06/14 07:24:02;;;;;;;5.73;2.00;;;;;;;26.06;31.11;68842.53;5012028;28;20211;-72
2021/06/14 07:26:31;;;;;;;7.87;2.00;;;;;;;26.12;33.28;68849.72;5019217;28;20203;-73
2021/06/14 07:28:58;;;;;;;4.80;2.10;;;;;;;26.26;31.58;68865.34;5013577;28;20231;-74
2021/06/14 07:31:25;;;;;;;3.93;2.00;;;;;;;26.34;33.77;68874.34;5016272;28;20230;-73
2021/06/14 07:33:54;;;;;;;2.63;1.80;;;;;;;26.46;31.47;68888.50;5015985;28;20218;-72
2021/06/14 07:36:21;;;;;;;4.70;2.17;;;;;;;26.54;31.94;68897.53;5017983;28;20234;-72
2021/06/14 07:38:49;;;;;;;4.43;2.10;;;;;;;26.56;33.70;68899.72;5015380;28;20242;-74
2021/06/14 07:41:16;;;;;;;4.37;2.00;;;;;;;26.71;31.03;68915.75;5017347;28;20215;-73
2021/06/14 07:43:45;;;;;;;4.90;2.10;;;;;;;26.84;31.15;68931.22;5021578;28;20693;-71
2021/06/14 07:46:12;;;;;;;3.80;2.00;;;;;;;27.02;29.32;68951.28;5016309;28;20207;-73
2021/06/14 07:48:40;;;;;;;7.10;2.20;;;;;;;27.22;28.64;68973.31;5013172;28;20235;-73
2021/06/14 07:51:09;;;;;;;5.17;2.17;;;;;;;27.36;29.18;68989.47;5019631;28;20205;-74
2021/06/14 07:53:36;;;;;;;3.20;2.07;;;;;;;27.47;29.70;69001.72;5018002;28;20243;-74
2021/06/14 07:56:06;;;;;;;2.73;1.73;;;;;;;27.49;31.34;69003.38;5017282;28;20741;-73
2021/06/14 07:58:33;;;;;;;5.50;1.90;;;;;;;27.52;30.46;69007.25;5014127;28;20235;-73
2021/06/14 08:01:03;;;;;;;6.97;2.53;;;;;;;27.61;29.06;69017.72;5016030;28;20204;-73
2021/06/14 08:03:30;;;;;;;5.03;2.07;;;;;;;27.75;27.58;69033.34;5013677;28;20195;-74
2021/06/14 08:05:58;;;;;;;4.73;1.90;;;;;;;27.86;28.73;69045.72;5021040;28;20202;-72
2021/06/14 08:08:25;;;;;;;6.57;2.30;;;;;;;27.97;28.50;69058.41;5013242;28;20227;-72
2021/06/14 08:10:53;;;;;;;6.80;2.00;;;;;;;28.04;29.73;69066.28;5019816;28;20690;-74
2021/06/14 08:13:21;;;;;;;5.07;2.03;;;;;;;28.05;30.26;69067.28;5015676;28;20203;-71
2021/06/14 08:15:48;;;;;;;5.97;2.00;;;;;;;28.08;29.66;69071.28;5012131;28;20215;-74
2021/06/14 08:18:29;;;;;;;6.47;1.77;;;;;;;28.13;29.37;69076.59;5020908;28;20593;-73
2021/06/14 08:21:10;;;;;;;3.07;1.90;;;;;;;28.19;29.77;69083.78;5016570;28;20212;-71
2021/06/14 08:26:25;;;;;;;7.17;2.20;;;;;;;28.30;28.10;69095.75;5008216;28;20211;-73
2021/06/14 08:28:53;;;;;;;6.40;2.27;;;;;;;28.36;28.41;69102.81;5013854;28;20235;-74
2021/06/14 08:31:20;;;;;;;3.80;2.10;;;;;;;28.38;29.63;69104.72;5013143;28;20215;-74
2021/06/14 08:33:49;;;;;;;6.83;2.23;;;;;;;28.47;28.68;69114.75;5011298;28;20210;-74
2021/06/14 08:36:17;;;;;;;4.93;2.17;;;;;;;28.60;27.64;69129.19;5017454;28;20234;-74
2021/06/14 08:38:44;;;;;;;7.93;2.00;;;;;;;28.67;27.87;69137.81;5011855;28;20219;-73
2021/06/14 08:41:11;;;;;;;4.60;2.27;;;;;;;28.69;29.20;69139.25;5012123;28;20205;-73
2021/06/14 08:43:39;;;;;;;2.93;1.70;;;;;;;28.82;26.93;69154.91;5013805;28;20204;-74
2021/06/14 08:46:06;;;;;;;3.27;1.73;;;;;;;28.96;26.20;69170.22;5014647;28;20213;-73
2021/06/14 08:48:34;;;;;;;3.40;1.87;;;;;;;29.03;27.10;69177.69;5012746;28;20240;-72
2021/06/14 08:51:03;;;;;;;4.13;2.13;;;;;;;29.00;28.67;69174.81;5016965;28;20210;-74
2021/06/14 08:53:30;;;;;;;4.67;2.40;;;;;;;29.07;27.01;69181.88;5013985;28;20205;-72
2021/06/14 08:55:58;;;;;;;4.73;1.90;;;;;;;29.10;27.07;69185.34;5018056;28;20250;-74
2021/06/14 08:58:26;;;;;;;4.33;1.77;;;;;;;29.10;27.94;69185.81;5012652;28;20296;-74
2021/06/14 09:00:54;;;;;;;12.00;2.03;;;;;;;29.13;27.21;69189.09;5017353;28;20224;-70
2021/06/14 09:03:24;;;;;;;4.50;1.90;;;;;;;29.09;27.45;69184.22;5013651;28;20207;-76
2021/06/14 09:05:51;;;;;;;4.70;1.97;;;;;;;29.11;27.34;69186.03;5013476;28;20210;-69
2021/06/14 09:08:22;;;;;;;4.20;2.10;;;;;;;29.19;25.96;69194.97;5007895;28;20706;-70
2021/06/14 09:10:50;;;;;;;3.77;1.93;;;;;;;29.13;27.75;69188.22;5011935;28;20213;-70
2021/06/14 09:13:19;;;;;;;4.00;1.93;;;;;;;29.10;26.21;69185.81;5011342;28;20221;-70
2021/06/14 09:15:48;;;;;;;3.33;1.50;;;;;;;29.10;24.73;69185.81;5007326;28;20300;-69
2021/06/14 09:18:20;;;;;;;4.57;1.70;;;;;;;29.10;26.37;69185.69;5010003;28;20233;-67
2021/06/14 09:21:00;;;;;;;2.63;1.47;;;;;;;29.14;25.58;69189.88;5008816;28;20685;-70
2021/06/14 09:23:46;;;;;;;3.43;1.40;;;;;;;29.16;25.28;69192.34;5008137;28;20312;-69
2021/06/14 09:26:30;;;;;;;5.77;1.77;;;;;;;29.22;26.54;69199.38;5012233;28;20218;-69
2021/06/14 09:28:59;;;;;;;5.47;1.60;;;;;;;29.28;24.77;69206.41;5009216;28;20315;-69
2021/06/14 09:31:29;;;;;;;4.97;1.70;;;;;;;29.33;25.23;69211.44;5010848;28;20211;-70
2021/06/14 09:33:57;;;;;;;2.77;1.50;;;;;;;29.45;24.32;69225.38;5005727;28;20212;-69
2021/06/14 09:36:25;;;;;;;3.53;1.73;;;;;;;29.50;25.23;69231.06;5009323;28;20228;-69
2021/06/14 09:38:53;;;;;;;5.37;2.10;;;;;;;29.50;26.48;69231.00;5009923;28;20687;-70
2021/06/14 09:41:21;;;;;;;3.30;1.70;;;;;;;29.51;26.69;69231.25;5010828;28;20296;-68
2021/06/14 09:43:52;;;;;;;3.80;2.00;;;;;;;29.63;24.32;69244.91;5010077;28;20206;-70
2021/06/14 09:46:22;;;;;;;4.77;1.87;;;;;;;29.58;26.34;69240.25;4999677;28;20218;-68
2021/06/14 09:48:50;;;;;;;2.97;1.77;;;;;;;29.63;26.40;69245.41;4999734;28;21673;-68
2021/06/14 09:51:18;;;;;;;5.20;1.57;;;;;;;-139.38;100.00;63230.50;5009610;28;20687;-69
2021/06/14 09:53:48;;;;;;;3.43;1.87;;;;;;;-139.38;100.00;63230.50;5007958;28;20675;-69
2021/06/14 09:56:19;;;;;;;4.50;1.90;;;;;;;-139.38;100.00;63230.50;5009048;28;20233;-69
2021/06/14 09:58:48;;;;;;;4.10;2.20;;;;;;;29.73;25.28;69257.19;5007351;28;20321;-69
2021/06/14 10:01:23;;;;;;;3.93;2.10;;;;;;;-139.38;100.00;63230.50;5010511;28;20213;-68
2021/06/14 10:03:51;;;;;;;5.47;1.80;;;;;;;29.88;24.68;69274.34;5008689;28;20214;-68
2021/06/14 10:06:31;;;;;;;4.53;2.30;;;;;;;30.03;24.25;69291.91;5008994;28;20317;-68
2021/06/14 10:08:59;;;;;;;4.68;1.83;;;;;;;30.08;23.91;69297.53;5009037;28;20223;-70
2021/06/14 10:11:34;;;;;;;3.47;1.92;;;;;;;30.22;23.29;69313.19;5010303;28;20746;-69
2021/06/14 10:14:10;;;;;;;4.30;1.63;;;;;;;30.19;24.80;69309.84;5008083;28;20298;-68
2021/06/14 10:16:39;;;;;;;4.10;1.58;;;;;;;30.25;24.28;69316.75;5006426;28;20237;-68
2021/06/14 10:19:08;;;;;;;3.65;1.52;;;;;;;30.36;22.95;69328.34;5008785;28;20435;-68
2021/06/14 10:21:37;;;;;;;5.22;2.00;;;;;;;30.51;23.42;69345.59;5009074;28;20726;-68
2021/06/14 10:24:07;;;;;;;3.60;1.60;;;;;;;30.66;23.46;69362.44;5007753;28;20582;-69
2021/06/14 10:26:37;;;;;;;3.90;1.83;;;;;;;30.83;22.46;69381.22;5010212;28;20207;-69
2021/06/14 10:29:06;;;;;;;3.75;2.20;;;;;;;30.99;22.49;69399.09;5012099;28;20246;-73
2021/06/14 10:31:34;;;;;;;2.35;1.63;;;;;;;31.08;23.97;69409.13;5014122;28;20211;-69
2021/06/14 10:34:02;;;;;;;5.20;2.10;;;;;;;31.07;24.53;69407.53;5012917;28;20211;-71
2021/06/14 10:36:30;;;;;;;3.67;1.70;;;;;;;31.11;24.27;69412.53;5012002;28;20203;-68
2021/06/14 10:38:58;;;;;;;4.03;1.92;;;;;;;31.14;24.10;69415.94;5011520;28;20622;-70
2021/06/14 10:41:25;;;;;;;8.75;2.30;;;;;;;31.21;23.50;69423.19;5012785;28;20214;-68
2021/06/14 10:43:55;;;;;;;3.92;1.95;;;;;;;31.27;23.98;69430.69;5010684;28;20211;-69
2021/06/14 10:46:25;;;;;;;2.90;1.73;;;;;;;31.34;24.01;69439.22;5013315;28;20216;-68
2021/06/14 10:48:56;;;;;;;3.90;1.90;;;;;;;31.48;22.12;69454.25;5013397;28;20231;-71
2021/06/14 10:51:24;;;;;;;4.03;1.88;;;;;;;31.50;23.51;69456.72;5012695;28;20322;-70
2021/06/14 10:53:59;;;;;;;3.47;1.80;;;;;;;31.49;23.61;69455.88;5012353;28;20297;-67
2021/06/14 10:56:27;;;;;;;5.43;2.50;;;;;;;31.62;22.75;69470.13;5010664;28;20258;-68
2021/06/14 10:59:00;;;;;;;4.75;1.95;;;;;;;31.70;22.16;69479.88;5012575;28;20223;-68
2021/06/14 11:01:32;;;;;;;4.40;1.67;;;;;;;31.74;23.10;69483.88;5010387;28;20203;-70
2021/06/14 11:03:59;;;;;;;4.40;1.70;;;;;;;31.80;21.79;69490.19;5011850;28;20253;-70
2021/06/14 11:06:28;;;;;;;4.55;1.80;;;;;;;31.86;23.09;69497.53;5012152;28;20685;-68
2021/06/14 11:09:01;;;;;;;2.60;1.80;;;;;;;31.86;22.76;69497.81;5012845;28;20219;-69
2021/06/14 11:11:28;;;;;;;5.32;1.58;;;;;;;31.83;22.42;69494.25;5010512;28;20214;-67
2021/06/14 11:13:56;;;;;;;3.55;1.75;;;;;;;31.78;22.02;69488.94;5012429;28;20233;-70
2021/06/14 11:16:34;;;;;;;3.33;1.70;;;;;;;31.77;22.86;69487.16;5012884;28;20210;-69
2021/06/14 11:19:03;;;;;;;2.30;1.52;;;;;;;31.89;20.67;69501.00;5012701;28;20586;-71
2021/06/14 11:21:30;;;;;;;4.28;1.65;;;;;;;31.98;20.87;69511.31;5009166;28;20287;-68
2021/06/14 11:24:07;;;;;;;3.22;1.38;;;;;;;32.11;19.90;69525.31;5011740;28;20836;-68
2021/06/14 11:26:34;;;;;;;2.55;1.42;;;;;;;32.12;20.21;69527.19;5010495;28;20293;-69
2021/06/14 11:29:12;;;;;;;3.10;1.73;;;;;;;32.07;21.98;69521.53;5012169;28;20254;-68
2021/06/14 11:31:42;;;;;;;4.22;1.83;;;;;;;32.03;21.24;69516.81;5010949;28;20207;-68
2021/06/14 11:34:20;;;;;;;2.65;1.35;;;;;;;32.04;20.02;69518.13;5012230;28;20720;-68
2021/06/14 11:36:57;;;;;;;7.28;1.55;;;;;;;32.11;19.82;69526.66;5012196;28;20221;-68
2021/06/14 11:39:26;;;;;;;2.65;1.48;;;;;;;32.30;18.35;69547.22;5010749;28;20206;-68
2021/06/14 11:41:54;;;;;;;3.22;1.38;;;;;;;32.45;18.69;69564.84;5008508;28;20661;-69
2021/06/14 11:44:29;;;;;;;4.15;1.60;;;;;;;32.57;18.67;69578.16;5010539;28;20302;-69
2021/06/14 11:47:00;;;;;;;2.90;1.77;;;;;;;32.54;21.13;69574.19;5011933;28;20245;-71
2021/06/14 11:49:33;;;;;;;4.65;1.58;;;;;;;32.56;21.19;69576.63;5012149;28;20207;-73
2021/06/14 11:52:00;;;;;;;3.65;1.60;;;;;;;32.61;20.68;69582.69;5012327;28;20208;-69
2021/06/14 11:54:28;;;;;;;3.03;1.20;;;;;;;32.71;20.03;69593.59;5012743;28;20213;-68
2021/06/14 11:56:59;;;;;;;2.08;1.40;;;;;;;32.75;20.34;69598.34;5013001;28;20207;-68
2021/06/14 11:59:31;;;;;;;2.65;1.60;;;;;;;32.78;21.45;69601.81;5016453;28;20207;-70
2021/06/14 12:02:01;;;;;;;3.22;1.50;;;;;;;32.91;17.68;69615.50;5010660;28;20211;-67
2021/06/14 12:04:29;;;;;;;1.88;1.35;;;;;;;32.90;19.07;69614.69;5011934;28;20664;-67
2021/06/14 12:06:57;;;;;;;5.80;1.50;;;;;;;32.84;19.71;69607.00;5014522;28;20199;-69
2021/06/14 12:09:27;;;;;;;2.75;1.30;;;;;;;32.84;18.52;69607.13;5012269;28;20639;-70
2021/06/14 12:11:59;;;;;;;3.50;1.52;;;;;;;32.85;18.51;69607.81;5014771;28;20221;-68
2021/06/14 12:14:27;;;;;;;3.53;1.50;;;;;;;32.86;18.80;69609.38;5010335;28;20211;-69
2021/06/14 12:17:01;;;;;;;4.10;1.50;;;;;;;32.86;18.69;69608.28;5012067;28;20207;-69
2021/06/14 12:19:32;;;;;;;3.60;1.40;;;;;;;32.89;17.59;69611.88;5012729;28;20215;-68
2021/06/14 12:22:02;;;;;;;2.63;1.40;;;;;;;32.89;18.32;69612.44;5011434;28;20226;-70
2021/06/14 12:24:32;;;;;;;7.03;1.98;;;;;;;32.85;20.44;69607.84;5014627;28;20690;-69
2021/06/14 12:27:01;;;;;;;4.20;1.90;;;;;;;32.90;19.24;69613.50;5014668;28;20660;-71
2021/06/14 12:29:28;;;;;;;4.13;1.45;;;;;;;32.98;19.08;69622.53;5012352;28;20853;-70
2021/06/14 12:32:09;;;;;;;4.15;1.48;;;;;;;33.09;17.81;69635.03;5011068;28;20203;-71
2021/06/14 12:34:38;;;;;;;3.28;1.48;;;;;;;33.17;18.94;69643.50;5011709;28;20298;-70
2021/06/14 12:37:08;;;;;;;2.72;1.80;;;;;;;33.36;16.98;69664.84;5011721;28;20279;-71
2021/06/14 12:39:36;;;;;;;2.58;1.70;;;;;;;33.57;16.51;69689.44;5012003;28;20213;-71
2021/06/14 12:42:04;;;;;;;3.15;1.40;;;;;;;33.57;19.76;69689.28;5011966;28;20214;-71
2021/06/14 12:44:32;;;;;;;3.00;1.80;;;;;;;33.54;19.43;69685.63;5009672;28;20203;-67
2021/06/14 12:46:59;;;;;;;4.60;1.52;;;;;;;33.56;19.89;69687.78;5011855;28;20204;-67
2021/06/14 12:49:31;;;;;;;2.50;1.30;;;;;;;33.55;19.00;69686.53;5012324;28;20209;-68
2021/06/14 12:51:59;;;;;;;4.05;1.55;;;;;;;33.57;18.76;69688.34;5014308;28;20683;-70
2021/06/14 12:54:27;;;;;;;2.17;1.35;;;;;;;33.59;18.77;69690.69;5011063;28;20208;-69
2021/06/14 12:56:55;;;;;;;3.42;1.67;;;;;;;33.65;19.65;69697.25;5009380;28;20222;-70
2021/06/14 12:59:23;;;;;;;2.53;1.75;;;;;;;33.70;18.71;69702.88;5012068;28;20226;-68
2021/06/14 13:01:50;;;;;;;3.25;1.60;;;;;;;33.80;17.94;69714.09;5012177;28;20219;-67
2021/06/14 13:04:18;;;;;;;3.35;1.90;;;;;;;33.93;17.32;69728.94;5009573;28;20243;-68
2021/06/14 13:06:46;;;;;;;4.15;1.42;;;;;;;34.02;17.68;69738.88;5010109;28;20729;-69
2021/06/14 13:09:14;;;;;;;3.42;1.40;;;;;;;34.10;18.54;69747.94;5008477;28;20231;-69
2021/06/14 13:11:43;;;;;;;2.83;1.63;;;;;;;34.08;18.87;69746.03;5010612;28;20257;-69
2021/06/14 13:14:10;;;;;;;2.92;1.40;;;;;;;34.06;19.35;69743.31;5010542;28;20209;-68